sensor_id;sensor_type;location;lat;lon;timestamp;P1;durP1;ratioP1;P2;durP2;ratioP2
43413;SDS011;29013;49.676;8.606;2023-05-15T00:02:59;0.72;;;0.78;;
43413;SDS011;29013;49.676;8.606;2023-05-15T00:08:22;0.89;;;0.82;;
43413;SDS011;29013;49.676;8.606;2023-05-15T00:13:46;0.78;;;0.72;;
43413;SDS011;29013;49.676;8.606;2023-05-15T00:19:29;1.15;;;0.91;;
43413;SDS011;29013;49.676;8.606;2023-05-15T00:24:53;1.08;;;0.79;;
43413;SDS011;29013;49.676;8.606;2023-05-15T00:30:18;1.41;;;0.88;;
43413;SDS011;29013;49.676;8.606;2023-05-15T00:35:42;0.92;;;0.8;;
43413;SDS011;29013;49.676;8.606;2023-05-15T00:41:06;0.76;;;0.65;;
43413;SDS011;29013;49.676;8.606;2023-05-15T00:46:30;0.63;;;0.7;;
43413;SDS011;29013;49.676;8.606;2023-05-15T00:52:06;0.96;;;0.8;;
43413;SDS011;29013;49.676;8.606;2023-05-15T00:57:28;1.0;;;0.78;;
43413;SDS011;29013;49.676;8.606;2023-05-15T01:02:53;0.74;;;0.66;;
43413;SDS011;29013;49.676;8.606;2023-05-15T01:08:15;0.86;;;0.79;;
43413;SDS011;29013;49.676;8.606;2023-05-15T01:13:39;1.69;;;0.87;;
43413;SDS011;29013;49.676;8.606;2023-05-15T01:19:03;1.1;;;0.92;;
43413;SDS011;29013;49.676;8.606;2023-05-15T01:24:40;0.76;;;0.84;;
43413;SDS011;29013;49.676;8.606;2023-05-15T01:29:57;0.85;;;0.86;;
43413;SDS011;29013;49.676;8.606;2023-05-15T01:35:22;1.04;;;0.87;;
43413;SDS011;29013;49.676;8.606;2023-05-15T01:41:09;4.27;;;1.08;;
43413;SDS011;29013;49.676;8.606;2023-05-15T01:46:32;1.33;;;0.79;;
43413;SDS011;29013;49.676;8.606;2023-05-15T01:51:58;1.19;;;0.93;;
43413;SDS011;29013;49.676;8.606;2023-05-15T01:57:22;1.51;;;1.12;;
43413;SDS011;29013;49.676;8.606;2023-05-15T02:02:43;1.49;;;0.95;;
43413;SDS011;29013;49.676;8.606;2023-05-15T02:08:04;1.36;;;1.03;;
43413;SDS011;29013;49.676;8.606;2023-05-15T02:13:28;2.07;;;1.19;;
43413;SDS011;29013;49.676;8.606;2023-05-15T02:18:53;1.4;;;1.03;;
43413;SDS011;29013;49.676;8.606;2023-05-15T02:24:16;3.33;;;1.3;;
43413;SDS011;29013;49.676;8.606;2023-05-15T02:29:41;1.49;;;1.13;;
43413;SDS011;29013;49.676;8.606;2023-05-15T02:35:20;1.3;;;1.11;;
43413;SDS011;29013;49.676;8.606;2023-05-15T02:40:41;1.33;;;1.12;;
43413;SDS011;29013;49.676;8.606;2023-05-15T02:46:05;1.86;;;1.26;;
43413;SDS011;29013;49.676;8.606;2023-05-15T02:51:27;1.39;;;1.11;;
43413;SDS011;29013;49.676;8.606;2023-05-15T02:56:51;0.98;;;1.0;;
43413;SDS011;29013;49.676;8.606;2023-05-15T03:02:15;1.49;;;1.0;;
43413;SDS011;29013;49.676;8.606;2023-05-15T03:07:40;2.09;;;1.23;;
43413;SDS011;29013;49.676;8.606;2023-05-15T03:13:01;1.32;;;1.06;;
43413;SDS011;29013;49.676;8.606;2023-05-15T03:18:25;3.31;;;1.07;;
43413;SDS011;29013;49.676;8.606;2023-05-15T03:24:28;1.92;;;1.2;;
43413;SDS011;29013;49.676;8.606;2023-05-15T03:29:51;1.4;;;1.03;;
43413;SDS011;29013;49.676;8.606;2023-05-15T03:35:15;1.38;;;1.12;;
43413;SDS011;29013;49.676;8.606;2023-05-15T03:40:58;1.71;;;1.11;;
43413;SDS011;29013;49.676;8.606;2023-05-15T03:46:20;2.71;;;1.03;;
43413;SDS011;29013;49.676;8.606;2023-05-15T03:51:44;1.96;;;1.28;;
43413;SDS011;29013;49.676;8.606;2023-05-15T03:57:09;2.1;;;1.08;;
43413;SDS011;29013;49.676;8.606;2023-05-15T04:02:33;0.9;;;0.92;;
43413;SDS011;29013;49.676;8.606;2023-05-15T04:07:54;1.88;;;1.28;;
43413;SDS011;29013;49.676;8.606;2023-05-15T04:13:20;0.86;;;0.97;;
43413;SDS011;29013;49.676;8.606;2023-05-15T04:18:43;1.47;;;1.06;;
43413;SDS011;29013;49.676;8.606;2023-05-15T04:24:08;1.26;;;0.97;;
43413;SDS011;29013;49.676;8.606;2023-05-15T04:29:27;1.17;;;1.0;;
43413;SDS011;29013;49.676;8.606;2023-05-15T04:34:47;1.46;;;1.15;;
43413;SDS011;29013;49.676;8.606;2023-05-15T04:40:13;1.85;;;1.1;;
43413;SDS011;29013;49.676;8.606;2023-05-15T04:45:36;2.11;;;1.12;;
43413;SDS011;29013;49.676;8.606;2023-05-15T04:51:01;1.32;;;1.15;;
43413;SDS011;29013;49.676;8.606;2023-05-15T04:56:23;1.03;;;1.08;;
43413;SDS011;29013;49.676;8.606;2023-05-15T05:01:48;1.16;;;0.98;;
43413;SDS011;29013;49.676;8.606;2023-05-15T05:07:12;1.53;;;1.15;;
43413;SDS011;29013;49.676;8.606;2023-05-15T05:12:36;2.18;;;1.06;;
43413;SDS011;29013;49.676;8.606;2023-05-15T05:18:02;1.02;;;1.04;;
43413;SDS011;29013;49.676;8.606;2023-05-15T05:23:24;1.5;;;1.01;;
43413;SDS011;29013;49.676;8.606;2023-05-15T05:28:46;1.06;;;1.08;;
43413;SDS011;29013;49.676;8.606;2023-05-15T05:34:05;2.2;;;1.17;;
43413;SDS011;29013;49.676;8.606;2023-05-15T05:39:31;2.28;;;1.2;;
43413;SDS011;29013;49.676;8.606;2023-05-15T05:44:49;1.67;;;1.15;;
43413;SDS011;29013;49.676;8.606;2023-05-15T05:50:31;2.07;;;1.47;;
43413;SDS011;29013;49.676;8.606;2023-05-15T05:55:50;1.56;;;1.26;;
43413;SDS011;29013;49.676;8.606;2023-05-15T06:01:32;2.76;;;1.59;;
43413;SDS011;29013;49.676;8.606;2023-05-15T06:06:55;2.02;;;1.28;;
43413;SDS011;29013;49.676;8.606;2023-05-15T06:12:19;2.0;;;1.41;;
43413;SDS011;29013;49.676;8.606;2023-05-15T06:17:42;1.25;;;1.21;;
43413;SDS011;29013;49.676;8.606;2023-05-15T06:23:04;1.52;;;1.24;;
43413;SDS011;29013;49.676;8.606;2023-05-15T06:28:27;1.49;;;1.39;;
43413;SDS011;29013;49.676;8.606;2023-05-15T06:33:50;2.18;;;1.24;;
43413;SDS011;29013;49.676;8.606;2023-05-15T06:39:14;1.62;;;1.36;;
43413;SDS011;29013;49.676;8.606;2023-05-15T06:44:40;2.11;;;1.5;;
43413;SDS011;29013;49.676;8.606;2023-05-15T06:50:07;1.68;;;1.44;;
43413;SDS011;29013;49.676;8.606;2023-05-15T06:55:50;1.77;;;1.45;;
43413;SDS011;29013;49.676;8.606;2023-05-15T07:01:14;1.8;;;1.38;;
43413;SDS011;29013;49.676;8.606;2023-05-15T07:06:37;1.93;;;1.52;;
43413;SDS011;29013;49.676;8.606;2023-05-15T07:12:03;1.85;;;1.68;;
43413;SDS011;29013;49.676;8.606;2023-05-15T07:17:29;1.47;;;1.13;;
43413;SDS011;29013;49.676;8.606;2023-05-15T07:22:48;2.17;;;1.53;;
43413;SDS011;29013;49.676;8.606;2023-05-15T07:28:08;1.61;;;1.36;;
43413;SDS011;29013;49.676;8.606;2023-05-15T07:33:58;3.64;;;1.63;;
43413;SDS011;29013;49.676;8.606;2023-05-15T07:39:20;1.24;;;1.09;;
43413;SDS011;29013;49.676;8.606;2023-05-15T07:44:45;1.81;;;1.42;;
43413;SDS011;29013;49.676;8.606;2023-05-15T07:50:10;1.27;;;1.18;;
43413;SDS011;29013;49.676;8.606;2023-05-15T07:55:35;1.08;;;1.18;;
43413;SDS011;29013;49.676;8.606;2023-05-15T08:00:59;1.56;;;1.23;;
43413;SDS011;29013;49.676;8.606;2023-05-15T08:06:25;1.35;;;1.03;;
43413;SDS011;29013;49.676;8.606;2023-05-15T08:11:50;1.49;;;1.16;;
43413;SDS011;29013;49.676;8.606;2023-05-15T08:17:15;1.01;;;1.06;;
43413;SDS011;29013;49.676;8.606;2023-05-15T08:22:38;1.36;;;1.33;;
43413;SDS011;29013;49.676;8.606;2023-05-15T08:28:03;1.43;;;1.19;;
43413;SDS011;29013;49.676;8.606;2023-05-15T08:33:21;1.5;;;1.03;;
43413;SDS011;29013;49.676;8.606;2023-05-15T08:38:47;1.83;;;1.46;;
43413;SDS011;29013;49.676;8.606;2023-05-15T08:44:10;6.64;;;1.58;;
43413;SDS011;29013;49.676;8.606;2023-05-15T08:49:34;1.82;;;1.45;;
43413;SDS011;29013;49.676;8.606;2023-05-15T08:54:57;2.04;;;1.62;;
43413;SDS011;29013;49.676;8.606;2023-05-15T09:00:37;3.42;;;2.53;;
43413;SDS011;29013;49.676;8.606;2023-05-15T09:05:58;3.72;;;2.18;;
43413;SDS011;29013;49.676;8.606;2023-05-15T09:11:22;2.62;;;2.17;;
43413;SDS011;29013;49.676;8.606;2023-05-15T09:16:46;3.51;;;2.31;;
43413;SDS011;29013;49.676;8.606;2023-05-15T09:22:17;3.81;;;2.34;;
43413;SDS011;29013;49.676;8.606;2023-05-15T09:27:43;3.14;;;2.43;;
43413;SDS011;29013;49.676;8.606;2023-05-15T09:33:08;5.47;;;2.9;;
43413;SDS011;29013;49.676;8.606;2023-05-15T09:38:56;4.28;;;3.25;;
43413;SDS011;29013;49.676;8.606;2023-05-15T09:44:18;3.92;;;3.13;;
43413;SDS011;29013;49.676;8.606;2023-05-15T09:49:39;7.98;;;3.82;;
43413;SDS011;29013;49.676;8.606;2023-05-15T09:55:03;5.95;;;3.47;;
43413;SDS011;29013;49.676;8.606;2023-05-15T10:00:30;4.79;;;3.59;;
43413;SDS011;29013;49.676;8.606;2023-05-15T10:05:59;4.63;;;3.07;;
43413;SDS011;29013;49.676;8.606;2023-05-15T10:11:19;4.95;;;2.89;;
43413;SDS011;29013;49.676;8.606;2023-05-15T10:16:42;4.48;;;2.93;;
43413;SDS011;29013;49.676;8.606;2023-05-15T10:22:06;3.82;;;2.68;;
43413;SDS011;29013;49.676;8.606;2023-05-15T10:27:26;3.04;;;2.15;;
43413;SDS011;29013;49.676;8.606;2023-05-15T10:33:05;4.13;;;3.0;;
43413;SDS011;29013;49.676;8.606;2023-05-15T10:38:22;3.44;;;2.74;;
43413;SDS011;29013;49.676;8.606;2023-05-15T10:43:41;3.74;;;2.48;;
43413;SDS011;29013;49.676;8.606;2023-05-15T10:48:59;3.67;;;2.9;;
43413;SDS011;29013;49.676;8.606;2023-05-15T10:54:17;3.99;;;2.66;;
43413;SDS011;29013;49.676;8.606;2023-05-15T10:59:35;5.09;;;2.6;;
43413;SDS011;29013;49.676;8.606;2023-05-15T11:04:54;3.8;;;2.8;;
43413;SDS011;29013;49.676;8.606;2023-05-15T11:10:36;3.01;;;2.6;;
43413;SDS011;29013;49.676;8.606;2023-05-15T11:15:59;3.25;;;2.56;;
43413;SDS011;29013;49.676;8.606;2023-05-15T11:21:18;2.93;;;2.38;;
43413;SDS011;29013;49.676;8.606;2023-05-15T11:26:41;3.67;;;2.59;;
43413;SDS011;29013;49.676;8.606;2023-05-15T11:32:11;5.1;;;3.18;;
43413;SDS011;29013;49.676;8.606;2023-05-15T11:37:44;4.51;;;2.97;;
43413;SDS011;29013;49.676;8.606;2023-05-15T11:43:17;8.39;;;4.73;;
43413;SDS011;29013;49.676;8.606;2023-05-15T11:48:36;5.84;;;3.36;;
43413;SDS011;29013;49.676;8.606;2023-05-15T11:54:00;4.26;;;3.5;;
43413;SDS011;29013;49.676;8.606;2023-05-15T11:59:26;5.92;;;4.05;;
43413;SDS011;29013;49.676;8.606;2023-05-15T12:04:49;5.77;;;3.94;;
43413;SDS011;29013;49.676;8.606;2023-05-15T12:10:14;6.21;;;4.18;;
43413;SDS011;29013;49.676;8.606;2023-05-15T12:15:41;5.17;;;3.9;;
43413;SDS011;29013;49.676;8.606;2023-05-15T12:21:03;5.75;;;3.32;;
43413;SDS011;29013;49.676;8.606;2023-05-15T12:26:27;4.58;;;3.0;;
43413;SDS011;29013;49.676;8.606;2023-05-15T12:31:51;6.19;;;2.93;;
43413;SDS011;29013;49.676;8.606;2023-05-15T12:37:38;6.04;;;3.66;;
43413;SDS011;29013;49.676;8.606;2023-05-15T12:43:04;4.87;;;3.32;;
43413;SDS011;29013;49.676;8.606;2023-05-15T12:48:26;4.03;;;2.42;;
43413;SDS011;29013;49.676;8.606;2023-05-15T12:53:47;2.41;;;2.11;;
43413;SDS011;29013;49.676;8.606;2023-05-15T12:59:13;3.57;;;2.66;;
43413;SDS011;29013;49.676;8.606;2023-05-15T13:04:34;4.66;;;3.06;;
43413;SDS011;29013;49.676;8.606;2023-05-15T13:10:07;5.65;;;3.03;;
43413;SDS011;29013;49.676;8.606;2023-05-15T13:15:30;4.78;;;3.52;;
43413;SDS011;29013;49.676;8.606;2023-05-15T13:20:53;6.12;;;3.02;;
43413;SDS011;29013;49.676;8.606;2023-05-15T13:26:12;4.54;;;2.89;;
43413;SDS011;29013;49.676;8.606;2023-05-15T13:31:37;5.44;;;2.91;;
43413;SDS011;29013;49.676;8.606;2023-05-15T13:37:03;3.95;;;2.8;;
43413;SDS011;29013;49.676;8.606;2023-05-15T13:42:22;4.48;;;2.57;;
43413;SDS011;29013;49.676;8.606;2023-05-15T13:47:47;4.66;;;2.64;;
43413;SDS011;29013;49.676;8.606;2023-05-15T13:53:11;2.91;;;2.59;;
43413;SDS011;29013;49.676;8.606;2023-05-15T13:58:35;6.24;;;2.75;;
43413;SDS011;29013;49.676;8.606;2023-05-15T14:03:58;4.24;;;2.35;;
43413;SDS011;29013;49.676;8.606;2023-05-15T14:09:17;2.7;;;2.05;;
43413;SDS011;29013;49.676;8.606;2023-05-15T14:14:42;4.19;;;2.56;;
43413;SDS011;29013;49.676;8.606;2023-05-15T14:20:03;3.42;;;2.1;;
43413;SDS011;29013;49.676;8.606;2023-05-15T14:25:28;2.69;;;2.22;;
43413;SDS011;29013;49.676;8.606;2023-05-15T14:30:52;3.28;;;2.3;;
43413;SDS011;29013;49.676;8.606;2023-05-15T14:36:41;4.57;;;3.08;;
43413;SDS011;29013;49.676;8.606;2023-05-15T14:42:06;3.52;;;2.62;;
43413;SDS011;29013;49.676;8.606;2023-05-15T14:47:42;3.72;;;2.66;;
43413;SDS011;29013;49.676;8.606;2023-05-15T14:53:03;2.99;;;2.36;;
43413;SDS011;29013;49.676;8.606;2023-05-15T14:58:24;3.23;;;2.53;;
43413;SDS011;29013;49.676;8.606;2023-05-15T15:03:49;2.73;;;2.03;;
43413;SDS011;29013;49.676;8.606;2023-05-15T15:09:15;2.44;;;2.07;;
43413;SDS011;29013;49.676;8.606;2023-05-15T15:14:42;3.14;;;2.5;;
43413;SDS011;29013;49.676;8.606;2023-05-15T15:20:03;3.99;;;1.91;;
43413;SDS011;29013;49.676;8.606;2023-05-15T15:25:29;2.65;;;2.03;;
43413;SDS011;29013;49.676;8.606;2023-05-15T15:30:54;2.41;;;2.01;;
43413;SDS011;29013;49.676;8.606;2023-05-15T15:36:16;2.93;;;1.83;;
43413;SDS011;29013;49.676;8.606;2023-05-15T15:41:39;1.88;;;1.9;;
43413;SDS011;29013;49.676;8.606;2023-05-15T15:46:58;3.12;;;1.87;;
43413;SDS011;29013;49.676;8.606;2023-05-15T15:52:22;2.23;;;1.83;;
43413;SDS011;29013;49.676;8.606;2023-05-15T15:57:45;2.53;;;1.75;;
43413;SDS011;29013;49.676;8.606;2023-05-15T16:03:09;2.28;;;1.7;;
43413;SDS011;29013;49.676;8.606;2023-05-15T16:08:29;2.02;;;1.58;;
43413;SDS011;29013;49.676;8.606;2023-05-15T16:13:53;1.72;;;1.41;;
43413;SDS011;29013;49.676;8.606;2023-05-15T16:19:16;2.26;;;1.58;;
43413;SDS011;29013;49.676;8.606;2023-05-15T16:24:35;2.06;;;1.41;;
43413;SDS011;29013;49.676;8.606;2023-05-15T16:29:54;2.09;;;1.46;;
43413;SDS011;29013;49.676;8.606;2023-05-15T16:35:18;1.43;;;1.45;;
43413;SDS011;29013;49.676;8.606;2023-05-15T16:40:40;2.33;;;1.44;;
43413;SDS011;29013;49.676;8.606;2023-05-15T16:46:28;2.38;;;1.64;;
43413;SDS011;29013;49.676;8.606;2023-05-15T16:51:49;1.46;;;1.39;;
43413;SDS011;29013;49.676;8.606;2023-05-15T16:57:10;1.93;;;1.07;;
43413;SDS011;29013;49.676;8.606;2023-05-15T17:02:32;1.47;;;1.4;;
43413;SDS011;29013;49.676;8.606;2023-05-15T17:08:31;2.21;;;1.55;;
43413;SDS011;29013;49.676;8.606;2023-05-15T17:13:55;1.36;;;1.25;;
43413;SDS011;29013;49.676;8.606;2023-05-15T17:19:19;1.91;;;1.22;;
43413;SDS011;29013;49.676;8.606;2023-05-15T17:24:47;2.07;;;1.47;;
43413;SDS011;29013;49.676;8.606;2023-05-15T17:30:12;1.46;;;1.29;;
43413;SDS011;29013;49.676;8.606;2023-05-15T17:35:37;1.78;;;1.29;;
43413;SDS011;29013;49.676;8.606;2023-05-15T17:40:59;2.2;;;1.35;;
43413;SDS011;29013;49.676;8.606;2023-05-15T17:46:23;3.46;;;1.41;;
43413;SDS011;29013;49.676;8.606;2023-05-15T17:51:48;1.93;;;1.38;;
43413;SDS011;29013;49.676;8.606;2023-05-15T17:57:13;3.41;;;1.49;;
43413;SDS011;29013;49.676;8.606;2023-05-15T18:02:34;1.78;;;1.43;;
43413;SDS011;29013;49.676;8.606;2023-05-15T18:07:54;2.42;;;1.41;;
43413;SDS011;29013;49.676;8.606;2023-05-15T18:13:17;1.5;;;1.42;;
43413;SDS011;29013;49.676;8.606;2023-05-15T18:18:42;2.58;;;1.48;;
43413;SDS011;29013;49.676;8.606;2023-05-15T18:24:06;3.01;;;1.51;;
43413;SDS011;29013;49.676;8.606;2023-05-15T18:29:30;2.04;;;1.8;;
43413;SDS011;29013;49.676;8.606;2023-05-15T18:35:30;2.85;;;1.78;;
43413;SDS011;29013;49.676;8.606;2023-05-15T18:40:50;1.41;;;1.39;;
43413;SDS011;29013;49.676;8.606;2023-05-15T18:51:35;1.81;;;1.45;;
43413;SDS011;29013;49.676;8.606;2023-05-15T18:56:58;2.11;;;1.83;;
43413;SDS011;29013;49.676;8.606;2023-05-15T19:02:21;2.14;;;1.37;;
43413;SDS011;29013;49.676;8.606;2023-05-15T19:07:46;2.45;;;1.59;;
43413;SDS011;29013;49.676;8.606;2023-05-15T19:13:10;2.27;;;1.63;;
43413;SDS011;29013;49.676;8.606;2023-05-15T19:18:35;2.18;;;1.62;;
43413;SDS011;29013;49.676;8.606;2023-05-15T19:23:58;3.09;;;1.86;;
43413;SDS011;29013;49.676;8.606;2023-05-15T19:29:19;2.03;;;1.36;;
43413;SDS011;29013;49.676;8.606;2023-05-15T19:34:45;2.33;;;1.79;;
43413;SDS011;29013;49.676;8.606;2023-05-15T19:40:11;2.13;;;1.68;;
43413;SDS011;29013;49.676;8.606;2023-05-15T19:45:37;4.24;;;1.49;;
43413;SDS011;29013;49.676;8.606;2023-05-15T19:50:57;2.74;;;2.08;;
43413;SDS011;29013;49.676;8.606;2023-05-15T19:56:15;1.87;;;1.44;;
43413;SDS011;29013;49.676;8.606;2023-05-15T20:01:35;1.94;;;1.68;;
43413;SDS011;29013;49.676;8.606;2023-05-15T20:07:00;2.18;;;1.69;;
43413;SDS011;29013;49.676;8.606;2023-05-15T20:12:27;2.63;;;1.7;;
43413;SDS011;29013;49.676;8.606;2023-05-15T20:17:53;3.0;;;1.98;;
43413;SDS011;29013;49.676;8.606;2023-05-15T20:23:18;2.99;;;1.84;;
43413;SDS011;29013;49.676;8.606;2023-05-15T20:28:42;2.42;;;1.69;;
43413;SDS011;29013;49.676;8.606;2023-05-15T20:34:05;3.31;;;1.66;;
43413;SDS011;29013;49.676;8.606;2023-05-15T20:39:30;2.76;;;1.87;;
43413;SDS011;29013;49.676;8.606;2023-05-15T20:44:54;1.72;;;1.62;;
43413;SDS011;29013;49.676;8.606;2023-05-15T20:50:17;2.7;;;1.86;;
43413;SDS011;29013;49.676;8.606;2023-05-15T20:55:38;2.75;;;1.93;;
43413;SDS011;29013;49.676;8.606;2023-05-15T21:01:03;2.52;;;2.0;;
43413;SDS011;29013;49.676;8.606;2023-05-15T21:06:26;1.59;;;1.52;;
43413;SDS011;29013;49.676;8.606;2023-05-15T21:11:50;2.36;;;1.6;;
43413;SDS011;29013;49.676;8.606;2023-05-15T21:17:16;3.45;;;2.19;;
43413;SDS011;29013;49.676;8.606;2023-05-15T21:22:40;1.79;;;1.64;;
43413;SDS011;29013;49.676;8.606;2023-05-15T21:28:02;2.96;;;2.01;;
43413;SDS011;29013;49.676;8.606;2023-05-15T21:33:24;2.36;;;1.86;;
43413;SDS011;29013;49.676;8.606;2023-05-15T21:38:48;3.62;;;1.94;;
43413;SDS011;29013;49.676;8.606;2023-05-15T21:44:07;2.92;;;2.35;;
43413;SDS011;29013;49.676;8.606;2023-05-15T21:49:30;4.25;;;2.76;;
43413;SDS011;29013;49.676;8.606;2023-05-15T21:54:55;6.94;;;3.07;;
43413;SDS011;29013;49.676;8.606;2023-05-15T22:00:20;8.32;;;3.51;;
43413;SDS011;29013;49.676;8.606;2023-05-15T22:05:44;4.8;;;3.43;;
43413;SDS011;29013;49.676;8.606;2023-05-15T22:11:05;5.79;;;3.84;;
43413;SDS011;29013;49.676;8.606;2023-05-15T22:16:30;5.07;;;3.39;;
43413;SDS011;29013;49.676;8.606;2023-05-15T22:21:53;5.41;;;4.07;;
43413;SDS011;29013;49.676;8.606;2023-05-15T22:27:42;6.8;;;4.59;;
43413;SDS011;29013;49.676;8.606;2023-05-15T22:33:22;6.74;;;4.15;;
43413;SDS011;29013;49.676;8.606;2023-05-15T22:38:48;6.3;;;4.06;;
43413;SDS011;29013;49.676;8.606;2023-05-15T22:44:06;7.1;;;4.29;;
43413;SDS011;29013;49.676;8.606;2023-05-15T22:49:30;7.83;;;3.95;;
43413;SDS011;29013;49.676;8.606;2023-05-15T22:54:52;5.04;;;3.3;;
43413;SDS011;29013;49.676;8.606;2023-05-15T23:00:14;6.26;;;4.01;;
43413;SDS011;29013;49.676;8.606;2023-05-15T23:05:36;6.74;;;4.22;;
43413;SDS011;29013;49.676;8.606;2023-05-15T23:11:00;7.21;;;4.46;;
43413;SDS011;29013;49.676;8.606;2023-05-15T23:16:25;6.91;;;4.37;;
43413;SDS011;29013;49.676;8.606;2023-05-15T23:21:48;7.94;;;4.3;;
43413;SDS011;29013;49.676;8.606;2023-05-15T23:27:13;8.46;;;4.49;;
43413;SDS011;29013;49.676;8.606;2023-05-15T23:32:36;6.7;;;4.47;;
43413;SDS011;29013;49.676;8.606;2023-05-15T23:37:59;6.01;;;3.99;;
43413;SDS011;29013;49.676;8.606;2023-05-15T23:43:23;7.09;;;4.9;;
43413;SDS011;29013;49.676;8.606;2023-05-15T23:48:47;8.4;;;4.8;;
43413;SDS011;29013;49.676;8.606;2023-05-15T23:54:13;7.67;;;4.87;;
43413;SDS011;29013;49.676;8.606;2023-05-15T23:59:38;8.86;;;4.53;;
